Home > Products > Valid Products > MTR

000
SAUS43 KDDC 231500
MTRP28
METAR KP28 231456Z AUTO 18003KT 16/14 A3011 RMK AO1 SLP189 T01610139
53008





000
SAUS43 KDDC 231400
MTRP28
METAR KP28 231356Z AUTO 15003KT 16/14 A3010 RMK AO1 SLP185 T01560139





000
SAUS43 KDDC 231300
MTRP28
METAR KP28 231256Z AUTO 18005KT 16/14 A3008 RMK AO1 SLP180 T01560139





000
SAUS43 KDDC 231200
MTRP28
METAR KP28 231156Z AUTO 16004KT 16/14 A3008 RMK AO1 SLP181 60003
70006 T01560139 10156 20139 55000





000
SAUS43 KDDC 231100
MTRP28
METAR KP28 231056Z AUTO 12005KT 16/14 A3007 RMK AO1 SLP175 T01560139





000
SAUS43 KDDC 231000
MTRP28
METAR KP28 230956Z AUTO 14009KT 16/14 A3007 RMK AO1 SLP175 T01560139





000
SAUS43 KDDC 231000
MTRP28
METAR KP28 230956Z AUTO 14009KT 16/14 A3007 RMK AO1 SLP175 T01560139





000
SAUS43 KDDC 230900
MTRP28
METAR KP28 230856Z AUTO 09006KT 15/14 A3008 RMK AO1 SLP177 60003
T01500139 55004





000
SAUS43 KDDC 230800
MTRP28
METAR KP28 230756Z AUTO 22003KT 15/14 A3007 RMK AO1 SLP171 P0002
T01500139





000
SAUS43 KDDC 230700
MTRP28
METAR KP28 230656Z AUTO 20013KT 15/14 A3005 RMK AO1 SLP163 P0001
T01500144





000
SAUS43 KDDC 230600
MTRP28
METAR KP28 230556Z AUTO 00000KT 15/14 A3010 RMK AO1 SLP181 T01500139
10183 20150 402670128 53003





000
SAUS43 KDDC 230500
MTRP28
METAR KP28 230456Z AUTO 18006KT 16/14 A3008 RMK AO1 SLP177 T01610144





000
SAUS43 KDDC 230500
MTRP28
METAR KP28 230456Z AUTO 18006KT 16/14 A3008 RMK AO1 SLP177 T01610144





000
SAUS43 KDDC 230400
MTRP28
METAR KP28 230356Z AUTO 18010KT 17/14 A3008 RMK AO1 SLP178 T01670139





000
SAUS43 KDDC 230400
MTRP28
METAR KP28 230356Z AUTO 18010KT 17/14 A3008 RMK AO1 SLP178 T01670139





000
SAUS43 KDDC 230300
MTRP28
METAR KP28 230256Z AUTO 19009KT 17/15 A3009 RMK AO1 SLP181 T01720150
51013





000
SAUS43 KDDC 230200
MTRP28
METAR KP28 230156Z AUTO 20010KT 18/15 A3007 RMK AO1 SLP178 T01780150





000
SAUS43 KDDC 230200
MTRP28
METAR KP28 230156Z AUTO 20010KT 18/15 A3007 RMK AO1 SLP178 T01780150





000
SAUS43 KDDC 230100
MTRP28
METAR KP28 230056Z AUTO 19009KT 18/14 A3006 RMK AO1 SLP175 T01780144





000
SAUS43 KDDC 230100
MTRP28
METAR KP28 230056Z AUTO 19009KT 18/14 A3006 RMK AO1 SLP175 T01780144





000
SAUS43 KDDC 230000
MTRP28
METAR KP28 222356Z AUTO 16005KT 18/14 A3005 RMK AO1 SLP170 P0001
60003 T01780144 10267 20178 51004





000
SAUS43 KDDC 230000
MTRP28
METAR KP28 222356Z AUTO 16005KT 18/14 A3005 RMK AO1 SLP170 P0001
60003 T01780144 10267 20178 51004





000
SAUS43 KDDC 222300
MTRP28
METAR KP28 222256Z AUTO 16008KT 18/14 A3004 RMK AO1 SLP165 P0001
T01780144





000
SAUS43 KDDC 222300
MTRP28
METAR KP28 222256Z AUTO 16008KT 18/14 A3004 RMK AO1 SLP165 P0001
T01780144





000
SAUS43 KDDC 222203 COR
MTRP28
METAR KP28 222156Z AUTO 20008KT 18/15 A3005 RMK AO1 SLP168 P0001
T01830150





000
SAUS43 KDDC 222100
MTRP28
METAR KP28 222056Z AUTO 20013G21KT 24/11 A3003 RMK AO1 SLP160
T02390106 56015





000
SAUS43 KDDC 222000
MTRP28
METAR KP28 221956Z AUTO 20011KT 25/11 A3003 RMK AO1 PK WND
18028/1900 SLP160 T02500106





000
SAUS43 KDDC 221900
MTRP28
METAR KP28 221856Z AUTO 19020G28KT 27/11 A3004 RMK AO1 PK WND
19028/1856 SLP161 T02670106





000
SAUS43 KDDC 221800
MTRP28
METAR KP28 221756Z AUTO 19013G21KT 25/11 A3008 RMK AO1 SLP174
T02500106 10250 20128 58007





000
SAUS43 KDDC 221800
MTRP28
METAR KP28 221756Z AUTO 19013G21KT 25/11 A3008 RMK AO1 SLP174
T02500106 10250 20128 58007





000
SAUS43 KDDC 221700
MTRP28
METAR KP28 221656Z AUTO 18014KT 23/11 A3009 RMK AO1 SLP180 T02280111





000
SAUS43 KDDC 221700
MTRP28
METAR KP28 221656Z AUTO 18014KT 23/11 A3009 RMK AO1 SLP180 T02280111





000
SAUS43 KDDC 221600
MTRP28
METAR KP28 221556Z AUTO 17009KT 21/ A3011 RMK AO1 SLP185 T0206 $





000
SAUS43 KDDC 221600
MTRP28
METAR KP28 221556Z AUTO 17009KT 21/ A3011 RMK AO1 SLP185 T0206 $





000
SAUS43 KDDC 221500
MTRP28
METAR KP28 221456Z AUTO 17007KT 17/12 A3010 RMK AO1 SLP186 T01720117
53009





000
SAUS43 KDDC 221400
MTRP28
METAR KP28 221356Z AUTO 13007KT 14/12 A3009 RMK AO1 SLP180 T01440117





000
SAUS43 KDDC 221300
MTRP28
METAR KP28 221256Z AUTO 13009KT 13/12 A3008 RMK AO1 SLP178 T01330117





000
SAUS43 KDDC 221200
MTRP28
METAR KP28 221156Z AUTO 12005KT 13/12 A3008 RMK AO1 SLP176 T01330117
10172 20133 52012





000
SAUS43 KDDC 221100
MTRP28
METAR KP28 221056Z AUTO 13004KT 14/12 A3007 RMK AO1 SLP170 T01440122





000
SAUS43 KDDC 221100
MTRP28
METAR KP28 221056Z AUTO 13004KT 14/12 A3007 RMK AO1 SLP170 T01440122





000
SAUS43 KDDC 221000
MTRP28
METAR KP28 220956Z AUTO 13005KT 15/13 A3005 RMK AO1 SLP163 T01500128





000
SAUS43 KDDC 221000
MTRP28
METAR KP28 220956Z AUTO 13005KT 15/13 A3005 RMK AO1 SLP163 T01500128





000
SAUS43 KDDC 220900
MTRP28
METAR KP28 220856Z AUTO 16007KT 15/13 A3004 RMK AO1 SLP160 T01500128
51005





000
SAUS43 KDDC 220800
MTRP28
METAR KP28 220756Z AUTO 13006KT 16/13 A3004 RMK AO1 SLP160 T01560133





000
SAUS43 KDDC 220700
MTRP28
METAR KP28 220656Z AUTO 14004KT 17/13 A3003 RMK AO1 SLP158 T01670133





000
SAUS43 KDDC 220600
MTRP28
METAR KP28 220556Z AUTO 14004KT 17/13 A3002 RMK AO1 SLP155 T01720133
10244 20172 402830111 55003





000
SAUS43 KDDC 220600
MTRP28
METAR KP28 220556Z AUTO 14004KT 17/13 A3002 RMK AO1 SLP155 T01720133
10244 20172 402830111 55003





000
SAUS43 KDDC 220500
MTRP28
METAR KP28 220456Z AUTO 17007KT 18/14 A3002 RMK AO1 SLP154 T01830139





000
SAUS43 KDDC 220500
MTRP28
METAR KP28 220456Z AUTO 17007KT 18/14 A3002 RMK AO1 SLP154 T01830139





000
SAUS43 KDDC 220400
MTRP28
METAR KP28 220356Z AUTO 16007KT 19/14 A3002 RMK AO1 SLP157 T01940139





000
SAUS43 KDDC 220300
MTRP28
METAR KP28 220256Z AUTO 16005KT 19/14 A3003 RMK AO1 SLP161 T01940139
51015





000
SAUS43 KDDC 220200
MTRP28
METAR KP28 220156Z AUTO 16005KT 21/14 A3002 RMK AO1 SLP157 T02110139





000
SAUS43 KDDC 220200
MTRP28
METAR KP28 220156Z AUTO 16005KT 21/14 A3002 RMK AO1 SLP157 T02110139





000
SAUS43 KDDC 220100
MTRP28
METAR KP28 220056Z AUTO 16006KT 22/13 A3000 RMK AO1 SLP151 T02220133





000
SAUS43 KDDC 220000
MTRP28
METAR KP28 212356Z AUTO 16007KT 24/13 A2999 RMK AO1 SLP144 T02440128
10283 20244 55001





000
SAUS43 KDDC 212300
MTRP28
METAR KP28 212256Z AUTO 17008G18KT 27/13 A2998 RMK AO1 SLP141
T02670133





000
SAUS43 KDDC 212300
MTRP28
METAR KP28 212256Z AUTO 17008G18KT 27/13 A2998 RMK AO1 SLP141
T02670133





000
SAUS43 KDDC 212200
MTRP28
METAR KP28 212156Z AUTO 17010G16KT 28/13 A2998 RMK AO1 SLP140
T02780133





000
SAUS43 KDDC 212200
MTRP28
METAR KP28 212156Z AUTO 17010G16KT 28/13 A2998 RMK AO1 SLP140
T02780133





000
SAUS43 KDDC 212100
MTRP28
METAR KP28 212056Z AUTO 16007G16KT 28/13 A2999 RMK AO1 SLP146
T02780133 56022





000
SAUS43 KDDC 212000
MTRP28
METAR KP28 211956Z AUTO 18011G16KT 27/15 A3001 RMK AO1 SLP152
T02720150





000
SAUS43 KDDC 212000
MTRP28
METAR KP28 211956Z AUTO 18011G16KT 27/15 A3001 RMK AO1 SLP152
T02720150





000
SAUS43 KDDC 211900
MTRP28
METAR KP28 211856Z AUTO 16009KT 120V180 27/14 A3003 RMK AO1 SLP159
T02670144





000
SAUS43 KDDC 211800
MTRP28
METAR KP28 211756Z AUTO 16006KT 24/15 A3006 RMK AO1 SLP170 T02440150
10244 20150 58010





000
SAUS43 KDDC 211700
MTRP28
METAR KP28 211656Z AUTO 15005KT 23/15 A3008 RMK AO1 SLP177 T02280150





000
SAUS43 KDDC 211600
MTRP28
METAR KP28 211556Z AUTO VRB05KT 19/16 A3008 RMK AO1 SLP180 T01940156





000
SAUS43 KDDC 211600
MTRP28
METAR KP28 211556Z AUTO VRB05KT 19/16 A3008 RMK AO1 SLP180 T01940156





000
SAUS43 KDDC 211500
MTRP28
METAR KP28 211456Z AUTO 13006KT 17/15 A3009 RMK AO1 SLP185 T01670150
53008





000
SAUS43 KDDC 211400
MTRP28
METAR KP28 211356Z AUTO 12006KT 15/14 A3008 RMK AO1 SLP180 T01500144





000
SAUS43 KDDC 211300
MTRP28
METAR KP28 211256Z AUTO 11005KT 15/14 A3007 RMK AO1 SLP173 T01500139





000
SAUS43 KDDC 211200
MTRP28
METAR KP28 211156Z AUTO 11004KT 15/14 A3007 RMK AO1 SLP172 T01500139
10156 20111 53001





000
SAUS43 KDDC 211200
MTRP28
METAR KP28 211156Z AUTO 11004KT 15/14 A3007 RMK AO1 SLP172 T01500139
10156 20111 53001





000
SAUS43 KDDC 211100
MTRP28
METAR KP28 211056Z AUTO 10004KT 15/14 A3006 RMK AO1 SLP170 T01500139
$





000
SAUS43 KDDC 211100
MTRP28
METAR KP28 211056Z AUTO 10004KT 15/14 A3006 RMK AO1 SLP170 T01500139
$





000
SAUS43 KDDC 211000
MTRP28
METAR KP28 210956Z AUTO 10004KT 16/14 A3006 RMK AO1 SLP167 T01560139
$





000
SAUS43 KDDC 211000
MTRP28
METAR KP28 210956Z AUTO 10004KT 16/14 A3006 RMK AO1 SLP167 T01560139
$





000
SAUS43 KDDC 210900
MTRP28
METAR KP28 210856Z AUTO 00000KT 12/09 A3006 RMK AO1 SLP170 T01170094
58002 $





000
SAUS43 KDDC 210800
MTRP28
METAR KP28 210756Z AUTO 00000KT 12/09 A3007 RMK AO1 SLP171 T01170089
$





000
SAUS43 KDDC 210700
MTRP28
METAR KP28 210656Z AUTO 00000KT 12/09 A3007 RMK AO1 SLP172 T01170089
$





000
SAUS43 KDDC 210600
MTRP28
METAR KP28 210556Z AUTO 00000KT 13/09 A3007 RMK AO1 SLP172 T01330089
10228 20122 402780100 58002 $





000
SAUS43 KDDC 210500
MTRP28
METAR KP28 210456Z AUTO 00000KT 12/09 A3007 RMK AO1 SLP174 T01220089
$





000
SAUS43 KDDC 210400
MTRP28
METAR KP28 210356Z AUTO 00000KT 15/09 A3008 RMK AO1 SLP177 T01500089





000
SAUS43 KDDC 210400
MTRP28
METAR KP28 210356Z AUTO 00000KT 15/09 A3008 RMK AO1 SLP177 T01500089





000
SAUS43 KDDC 210300
MTRP28
METAR KP28 210256Z AUTO 00000KT 14/09 A3007 RMK AO1 SLP178 T01440094
51011





000
SAUS43 KDDC 210200
MTRP28
METAR KP28 210156Z AUTO 01004KT 16/09 A3006 RMK AO1 SLP177 T01560094





000
SAUS43 KDDC 210200
MTRP28
METAR KP28 210156Z AUTO 01004KT 16/09 A3006 RMK AO1 SLP177 T01560094





000
SAUS43 KDDC 210100
MTRP28
METAR KP28 210056Z AUTO 08004KT 21/08 A3005 RMK AO1 SLP172 T02060083





000
SAUS43 KDDC 210000
MTRP28
METAR KP28 202356Z AUTO 10004KT 23/08 A3004 RMK AO1 SLP166 T02280078
10278 20228 53005





000
SAUS43 KDDC 202300
MTRP28
METAR KP28 202256Z AUTO 07007KT 25/09 A3003 RMK AO1 SLP161 T02500089





000
SAUS43 KDDC 202200
MTRP28
METAR KP28 202156Z AUTO 07007KT 27/07 A3003 RMK AO1 SLP158 T02720072





000
SAUS43 KDDC 202200
MTRP28
METAR KP28 202156Z AUTO 07007KT 27/07 A3003 RMK AO1 SLP158 T02720072





000
SAUS43 KDDC 202100
MTRP28
METAR KP28 202056Z AUTO 07010KT 27/07 A3003 RMK AO1 SLP156 T02720072
56012





000
SAUS43 KDDC 202000
MTRP28
METAR KP28 201956Z AUTO 07010G16KT 27/07 A3003 RMK AO1 SLP157
T02720072





000
SAUS43 KDDC 201900
MTRP28
METAR KP28 201856Z AUTO 09011KT 27/09 A3005 RMK AO1 SLP162 T02720089





000
SAUS43 KDDC 201800
MTRP28
METAR KP28 201756Z AUTO 07008KT 25/14 A3006 RMK AO1 SLP169 T02500139
10250 20100 58004





000
SAUS43 KDDC 201700
MTRP28
METAR KP28 201656Z AUTO 06010KT 23/14 A3008 RMK AO1 SLP175 T02330144





000
SAUS43 KDDC 201603 COR
MTRP28
METAR KP28 201556Z AUTO 06011KT 21/14 A3008 RMK AO1 SLP177 T02060144





000
SAUS43 KDDC 201600 COR
MTRP28
METAR KP28 201556Z AUTO 06011KT 21/14 A3008 RMK AO1 SLP177 T02060144





    US Dept of Commerce
    National Oceanic and Atmospheric Administration
    National Weather Service
    1325 East West Highway
    Silver Spring, MD 20910
    Page Author: NWS Internet Services Team
Disclaimer
Information Quality
Credits
Glossary
Privacy Policy
Freedom of Information Act (FOIA)
About Us
Career Opportunities